sensor_id;sensor_type;location;lat;lon;timestamp;P1;durP1;ratioP1;P2;durP2;ratioP2
10059;SDS011;5069;49.306;8.636;2022-11-11T00:01:54;3.83;;;3.30;;
10059;SDS011;5069;49.306;8.636;2022-11-11T00:05:15;4.53;;;3.30;;
10059;SDS011;5069;49.306;8.636;2022-11-11T00:08:36;3.90;;;3.00;;
10059;SDS011;5069;49.306;8.636;2022-11-11T00:11:56;8.47;;;3.60;;
10059;SDS011;5069;49.306;8.636;2022-11-11T00:15:16;7.87;;;3.23;;
10059;SDS011;5069;49.306;8.636;2022-11-11T00:18:36;4.73;;;3.10;;
10059;SDS011;5069;49.306;8.636;2022-11-11T00:22:19;4.13;;;3.00;;
10059;SDS011;5069;49.306;8.636;2022-11-11T00:25:49;5.50;;;3.50;;
10059;SDS011;5069;49.306;8.636;2022-11-11T00:29:11;5.47;;;3.17;;
10059;SDS011;5069;49.306;8.636;2022-11-11T00:32:32;3.93;;;3.30;;
10059;SDS011;5069;49.306;8.636;2022-11-11T00:35:52;5.83;;;3.57;;
10059;SDS011;5069;49.306;8.636;2022-11-11T00:39:13;5.13;;;3.03;;
10059;SDS011;5069;49.306;8.636;2022-11-11T00:42:33;4.93;;;3.00;;
10059;SDS011;5069;49.306;8.636;2022-11-11T00:45:53;5.33;;;3.20;;
10059;SDS011;5069;49.306;8.636;2022-11-11T00:49:33;3.50;;;2.97;;
10059;SDS011;5069;49.306;8.636;2022-11-11T00:53:13;7.07;;;3.27;;
10059;SDS011;5069;49.306;8.636;2022-11-11T00:56:39;4.10;;;3.20;;
10059;SDS011;5069;49.306;8.636;2022-11-11T00:59:58;4.97;;;3.17;;
10059;SDS011;5069;49.306;8.636;2022-11-11T01:03:19;4.33;;;3.00;;
10059;SDS011;5069;49.306;8.636;2022-11-11T01:06:40;4.77;;;2.87;;
10059;SDS011;5069;49.306;8.636;2022-11-11T01:10:02;5.00;;;2.97;;
10059;SDS011;5069;49.306;8.636;2022-11-11T01:13:23;6.17;;;3.20;;
10059;SDS011;5069;49.306;8.636;2022-11-11T01:16:51;5.23;;;3.10;;
10059;SDS011;5069;49.306;8.636;2022-11-11T01:20:11;4.10;;;3.03;;
10059;SDS011;5069;49.306;8.636;2022-11-11T01:23:32;4.23;;;2.70;;
10059;SDS011;5069;49.306;8.636;2022-11-11T01:26:53;4.07;;;2.70;;
10059;SDS011;5069;49.306;8.636;2022-11-11T01:30:13;4.77;;;3.13;;
10059;SDS011;5069;49.306;8.636;2022-11-11T01:33:33;6.57;;;2.90;;
10059;SDS011;5069;49.306;8.636;2022-11-11T01:36:54;4.00;;;2.50;;
10059;SDS011;5069;49.306;8.636;2022-11-11T01:40:14;3.97;;;3.00;;
10059;SDS011;5069;49.306;8.636;2022-11-11T01:43:34;7.03;;;3.50;;
10059;SDS011;5069;49.306;8.636;2022-11-11T01:46:55;5.63;;;3.90;;
10059;SDS011;5069;49.306;8.636;2022-11-11T01:50:18;5.10;;;4.10;;
10059;SDS011;5069;49.306;8.636;2022-11-11T01:53:38;6.60;;;4.40;;
10059;SDS011;5069;49.306;8.636;2022-11-11T01:57:10;7.67;;;4.77;;
10059;SDS011;5069;49.306;8.636;2022-11-11T02:00:36;8.00;;;4.80;;
10059;SDS011;5069;49.306;8.636;2022-11-11T02:03:56;5.73;;;4.60;;
10059;SDS011;5069;49.306;8.636;2022-11-11T02:07:38;8.87;;;4.97;;
10059;SDS011;5069;49.306;8.636;2022-11-11T02:14:26;7.27;;;4.73;;
10059;SDS011;5069;49.306;8.636;2022-11-11T02:17:55;5.50;;;4.40;;
10059;SDS011;5069;49.306;8.636;2022-11-11T02:21:17;6.80;;;4.43;;
10059;SDS011;5069;49.306;8.636;2022-11-11T02:24:44;7.33;;;4.67;;
10059;SDS011;5069;49.306;8.636;2022-11-11T02:28:05;6.77;;;4.30;;
10059;SDS011;5069;49.306;8.636;2022-11-11T02:31:27;4.60;;;3.50;;
10059;SDS011;5069;49.306;8.636;2022-11-11T02:34:48;6.47;;;3.40;;
10059;SDS011;5069;49.306;8.636;2022-11-11T02:38:08;5.33;;;3.90;;
10059;SDS011;5069;49.306;8.636;2022-11-11T02:41:31;5.67;;;3.33;;
10059;SDS011;5069;49.306;8.636;2022-11-11T02:45:09;4.60;;;3.30;;
10059;SDS011;5069;49.306;8.636;2022-11-11T02:48:30;4.30;;;3.53;;
10059;SDS011;5069;49.306;8.636;2022-11-11T02:51:50;3.33;;;3.03;;
10059;SDS011;5069;49.306;8.636;2022-11-11T02:55:10;3.83;;;3.40;;
10059;SDS011;5069;49.306;8.636;2022-11-11T02:58:30;4.37;;;2.80;;
10059;SDS011;5069;49.306;8.636;2022-11-11T03:01:51;5.00;;;2.90;;
10059;SDS011;5069;49.306;8.636;2022-11-11T03:05:11;4.00;;;2.57;;
10059;SDS011;5069;49.306;8.636;2022-11-11T03:08:31;4.00;;;2.60;;
10059;SDS011;5069;49.306;8.636;2022-11-11T03:11:51;3.47;;;2.90;;
10059;SDS011;5069;49.306;8.636;2022-11-11T03:15:12;3.13;;;2.80;;
10059;SDS011;5069;49.306;8.636;2022-11-11T03:18:31;2.63;;;2.43;;
10059;SDS011;5069;49.306;8.636;2022-11-11T03:21:52;3.00;;;2.80;;
10059;SDS011;5069;49.306;8.636;2022-11-11T03:25:41;4.17;;;2.70;;
10059;SDS011;5069;49.306;8.636;2022-11-11T03:29:03;3.70;;;2.47;;
10059;SDS011;5069;49.306;8.636;2022-11-11T03:32:23;4.00;;;2.80;;
10059;SDS011;5069;49.306;8.636;2022-11-11T03:35:43;5.33;;;2.73;;
10059;SDS011;5069;49.306;8.636;2022-11-11T03:39:06;5.90;;;3.10;;
10059;SDS011;5069;49.306;8.636;2022-11-11T03:42:26;3.87;;;3.40;;
10059;SDS011;5069;49.306;8.636;2022-11-11T03:45:46;7.60;;;3.77;;
10059;SDS011;5069;49.306;8.636;2022-11-11T03:49:06;4.97;;;3.27;;
10059;SDS011;5069;49.306;8.636;2022-11-11T03:52:26;4.33;;;3.10;;
10059;SDS011;5069;49.306;8.636;2022-11-11T03:55:46;5.20;;;3.13;;
10059;SDS011;5069;49.306;8.636;2022-11-11T03:59:06;3.53;;;3.20;;
10059;SDS011;5069;49.306;8.636;2022-11-11T04:02:26;5.50;;;2.90;;
10059;SDS011;5069;49.306;8.636;2022-11-11T04:06:07;5.03;;;3.37;;
10059;SDS011;5069;49.306;8.636;2022-11-11T04:09:47;3.97;;;3.20;;
10059;SDS011;5069;49.306;8.636;2022-11-11T04:13:26;3.83;;;3.30;;
10059;SDS011;5069;49.306;8.636;2022-11-11T04:17:05;5.40;;;3.20;;
10059;SDS011;5069;49.306;8.636;2022-11-11T04:20:25;4.83;;;3.30;;
10059;SDS011;5069;49.306;8.636;2022-11-11T04:24:04;5.90;;;3.23;;
10059;SDS011;5069;49.306;8.636;2022-11-11T04:27:44;4.80;;;3.27;;
10059;SDS011;5069;49.306;8.636;2022-11-11T04:31:03;3.80;;;3.00;;
10059;SDS011;5069;49.306;8.636;2022-11-11T04:34:23;5.23;;;3.57;;
10059;SDS011;5069;49.306;8.636;2022-11-11T04:37:47;4.57;;;3.63;;
10059;SDS011;5069;49.306;8.636;2022-11-11T04:41:31;6.70;;;3.43;;
10059;SDS011;5069;49.306;8.636;2022-11-11T04:45:11;5.20;;;3.63;;
10059;SDS011;5069;49.306;8.636;2022-11-11T04:48:50;5.40;;;4.00;;
10059;SDS011;5069;49.306;8.636;2022-11-11T04:52:10;4.87;;;3.70;;
10059;SDS011;5069;49.306;8.636;2022-11-11T04:55:45;5.10;;;4.23;;
10059;SDS011;5069;49.306;8.636;2022-11-11T04:59:24;5.23;;;3.90;;
10059;SDS011;5069;49.306;8.636;2022-11-11T05:02:44;5.40;;;3.60;;
10059;SDS011;5069;49.306;8.636;2022-11-11T05:06:23;5.37;;;3.97;;
10059;SDS011;5069;49.306;8.636;2022-11-11T05:10:02;5.60;;;3.70;;
10059;SDS011;5069;49.306;8.636;2022-11-11T05:13:22;5.03;;;3.97;;
10059;SDS011;5069;49.306;8.636;2022-11-11T05:17:01;9.23;;;4.90;;
10059;SDS011;5069;49.306;8.636;2022-11-11T05:20:40;12.03;;;5.20;;
10059;SDS011;5069;49.306;8.636;2022-11-11T05:24:19;12.60;;;6.50;;
10059;SDS011;5069;49.306;8.636;2022-11-11T05:27:58;14.37;;;6.60;;
10059;SDS011;5069;49.306;8.636;2022-11-11T05:31:18;16.93;;;6.73;;
10059;SDS011;5069;49.306;8.636;2022-11-11T05:34:38;12.07;;;5.57;;
10059;SDS011;5069;49.306;8.636;2022-11-11T05:38:00;11.23;;;5.43;;
10059;SDS011;5069;49.306;8.636;2022-11-11T05:41:39;9.50;;;5.33;;
10059;SDS011;5069;49.306;8.636;2022-11-11T05:44:59;8.27;;;4.93;;
10059;SDS011;5069;49.306;8.636;2022-11-11T05:48:19;8.63;;;4.90;;
10059;SDS011;5069;49.306;8.636;2022-11-11T05:51:39;7.33;;;4.40;;
10059;SDS011;5069;49.306;8.636;2022-11-11T05:54:59;4.00;;;3.57;;
10059;SDS011;5069;49.306;8.636;2022-11-11T05:58:19;4.20;;;3.57;;
10059;SDS011;5069;49.306;8.636;2022-11-11T06:01:39;5.60;;;3.10;;
10059;SDS011;5069;49.306;8.636;2022-11-11T06:04:59;3.73;;;2.90;;
10059;SDS011;5069;49.306;8.636;2022-11-11T06:08:19;5.97;;;2.50;;
10059;SDS011;5069;49.306;8.636;2022-11-11T06:11:39;2.97;;;2.67;;
10059;SDS011;5069;49.306;8.636;2022-11-11T06:14:59;2.80;;;2.40;;
10059;SDS011;5069;49.306;8.636;2022-11-11T06:18:19;3.50;;;2.63;;
10059;SDS011;5069;49.306;8.636;2022-11-11T06:21:39;4.80;;;2.90;;
10059;SDS011;5069;49.306;8.636;2022-11-11T06:25:17;3.90;;;3.30;;
10059;SDS011;5069;49.306;8.636;2022-11-11T06:28:56;2.80;;;2.60;;
10059;SDS011;5069;49.306;8.636;2022-11-11T06:32:16;6.97;;;2.50;;
10059;SDS011;5069;49.306;8.636;2022-11-11T06:35:37;3.20;;;2.67;;
10059;SDS011;5069;49.306;8.636;2022-11-11T06:38:58;2.47;;;2.20;;
10059;SDS011;5069;49.306;8.636;2022-11-11T06:42:18;3.07;;;2.20;;
10059;SDS011;5069;49.306;8.636;2022-11-11T06:45:38;3.20;;;2.50;;
10059;SDS011;5069;49.306;8.636;2022-11-11T06:48:58;3.43;;;2.73;;
10059;SDS011;5069;49.306;8.636;2022-11-11T06:52:18;6.77;;;2.70;;
10059;SDS011;5069;49.306;8.636;2022-11-11T06:55:38;3.70;;;2.80;;
10059;SDS011;5069;49.306;8.636;2022-11-11T06:58:59;3.43;;;2.80;;
10059;SDS011;5069;49.306;8.636;2022-11-11T07:02:19;3.70;;;3.10;;
10059;SDS011;5069;49.306;8.636;2022-11-11T07:05:39;5.20;;;3.47;;
10059;SDS011;5069;49.306;8.636;2022-11-11T07:08:59;3.90;;;3.47;;
10059;SDS011;5069;49.306;8.636;2022-11-11T07:12:20;4.70;;;3.70;;
10059;SDS011;5069;49.306;8.636;2022-11-11T07:15:41;4.00;;;3.40;;
10059;SDS011;5069;49.306;8.636;2022-11-11T07:19:02;7.30;;;4.30;;
10059;SDS011;5069;49.306;8.636;2022-11-11T07:22:21;5.47;;;3.70;;
10059;SDS011;5069;49.306;8.636;2022-11-11T07:25:42;4.07;;;3.07;;
10059;SDS011;5069;49.306;8.636;2022-11-11T07:29:02;4.97;;;3.57;;
10059;SDS011;5069;49.306;8.636;2022-11-11T07:32:22;3.77;;;3.37;;
10059;SDS011;5069;49.306;8.636;2022-11-11T07:35:42;9.57;;;5.20;;
10059;SDS011;5069;49.306;8.636;2022-11-11T07:39:02;9.07;;;4.87;;
10059;SDS011;5069;49.306;8.636;2022-11-11T07:42:27;8.07;;;3.60;;
10059;SDS011;5069;49.306;8.636;2022-11-11T07:45:50;3.40;;;3.10;;
10059;SDS011;5069;49.306;8.636;2022-11-11T07:49:10;5.03;;;3.23;;
10059;SDS011;5069;49.306;8.636;2022-11-11T07:52:31;6.13;;;3.43;;
10059;SDS011;5069;49.306;8.636;2022-11-11T07:55:51;6.73;;;3.47;;
10059;SDS011;5069;49.306;8.636;2022-11-11T07:59:11;5.03;;;3.57;;
10059;SDS011;5069;49.306;8.636;2022-11-11T08:02:31;8.77;;;3.83;;
10059;SDS011;5069;49.306;8.636;2022-11-11T08:05:51;7.87;;;4.20;;
10059;SDS011;5069;49.306;8.636;2022-11-11T08:09:11;8.20;;;5.07;;
10059;SDS011;5069;49.306;8.636;2022-11-11T08:12:31;9.27;;;4.93;;
10059;SDS011;5069;49.306;8.636;2022-11-11T08:16:11;7.70;;;4.73;;
10059;SDS011;5069;49.306;8.636;2022-11-11T08:19:32;10.93;;;5.43;;
10059;SDS011;5069;49.306;8.636;2022-11-11T08:22:52;11.27;;;5.43;;
10059;SDS011;5069;49.306;8.636;2022-11-11T08:26:34;10.73;;;6.03;;
10059;SDS011;5069;49.306;8.636;2022-11-11T08:29:54;12.93;;;6.40;;
10059;SDS011;5069;49.306;8.636;2022-11-11T08:33:13;14.83;;;7.37;;
10059;SDS011;5069;49.306;8.636;2022-11-11T08:36:53;13.57;;;7.27;;
10059;SDS011;5069;49.306;8.636;2022-11-11T08:40:14;13.10;;;7.17;;
10059;SDS011;5069;49.306;8.636;2022-11-11T08:43:35;12.57;;;6.57;;
10059;SDS011;5069;49.306;8.636;2022-11-11T08:46:56;11.03;;;6.67;;
10059;SDS011;5069;49.306;8.636;2022-11-11T08:50:17;13.37;;;5.47;;
10059;SDS011;5069;49.306;8.636;2022-11-11T08:53:37;13.03;;;5.17;;
10059;SDS011;5069;49.306;8.636;2022-11-11T08:56:57;6.73;;;4.97;;
10059;SDS011;5069;49.306;8.636;2022-11-11T09:00:17;8.67;;;5.00;;
10059;SDS011;5069;49.306;8.636;2022-11-11T09:03:38;7.97;;;5.13;;
10059;SDS011;5069;49.306;8.636;2022-11-11T09:07:02;7.37;;;5.13;;
10059;SDS011;5069;49.306;8.636;2022-11-11T09:10:21;14.53;;;6.00;;
10059;SDS011;5069;49.306;8.636;2022-11-11T09:13:41;8.97;;;5.73;;
10059;SDS011;5069;49.306;8.636;2022-11-11T09:17:01;8.67;;;6.10;;
10059;SDS011;5069;49.306;8.636;2022-11-11T09:20:22;9.17;;;5.93;;
10059;SDS011;5069;49.306;8.636;2022-11-11T09:23:44;10.27;;;5.73;;
10059;SDS011;5069;49.306;8.636;2022-11-11T09:27:04;10.57;;;6.20;;
10059;SDS011;5069;49.306;8.636;2022-11-11T09:30:25;9.93;;;6.80;;
10059;SDS011;5069;49.306;8.636;2022-11-11T09:33:46;11.50;;;7.50;;
10059;SDS011;5069;49.306;8.636;2022-11-11T09:37:06;10.47;;;6.43;;
10059;SDS011;5069;49.306;8.636;2022-11-11T09:40:27;8.33;;;6.10;;
10059;SDS011;5069;49.306;8.636;2022-11-11T09:44:00;11.50;;;6.70;;
10059;SDS011;5069;49.306;8.636;2022-11-11T09:47:30;9.50;;;6.17;;
10059;SDS011;5069;49.306;8.636;2022-11-11T09:51:00;6.53;;;5.03;;
10059;SDS011;5069;49.306;8.636;2022-11-11T09:54:58;9.23;;;5.43;;
10059;SDS011;5069;49.306;8.636;2022-11-11T09:58:20;9.03;;;6.03;;
10059;SDS011;5069;49.306;8.636;2022-11-11T10:01:47;10.90;;;6.33;;
10059;SDS011;5069;49.306;8.636;2022-11-11T10:05:12;9.13;;;5.90;;
10059;SDS011;5069;49.306;8.636;2022-11-11T10:08:36;11.60;;;6.37;;
10059;SDS011;5069;49.306;8.636;2022-11-11T10:12:11;11.23;;;6.10;;
10059;SDS011;5069;49.306;8.636;2022-11-11T10:15:34;13.57;;;7.17;;
10059;SDS011;5069;49.306;8.636;2022-11-11T10:23:02;15.20;;;6.03;;
10059;SDS011;5069;49.306;8.636;2022-11-11T10:26:37;13.67;;;6.30;;
10059;SDS011;5069;49.306;8.636;2022-11-11T10:30:00;10.93;;;6.70;;
10059;SDS011;5069;49.306;8.636;2022-11-11T10:33:44;11.07;;;6.40;;
10059;SDS011;5069;49.306;8.636;2022-11-11T10:37:23;10.90;;;6.73;;
10059;SDS011;5069;49.306;8.636;2022-11-11T10:40:54;10.93;;;6.70;;
10059;SDS011;5069;49.306;8.636;2022-11-11T10:44:31;11.60;;;6.67;;
10059;SDS011;5069;49.306;8.636;2022-11-11T10:48:00;8.43;;;6.47;;
10059;SDS011;5069;49.306;8.636;2022-11-11T10:51:24;8.87;;;6.57;;
10059;SDS011;5069;49.306;8.636;2022-11-11T10:54:50;10.27;;;5.90;;
10059;SDS011;5069;49.306;8.636;2022-11-11T10:58:19;8.83;;;6.37;;
10059;SDS011;5069;49.306;8.636;2022-11-11T11:05:21;13.33;;;7.33;;
10059;SDS011;5069;49.306;8.636;2022-11-11T11:08:54;11.70;;;7.13;;
10059;SDS011;5069;49.306;8.636;2022-11-11T11:12:21;11.53;;;7.27;;
10059;SDS011;5069;49.306;8.636;2022-11-11T11:15:51;12.90;;;8.17;;
10059;SDS011;5069;49.306;8.636;2022-11-11T11:22:44;15.33;;;8.10;;
10059;SDS011;5069;49.306;8.636;2022-11-11T11:26:07;12.80;;;7.90;;
10059;SDS011;5069;49.306;8.636;2022-11-11T11:32:55;14.93;;;8.63;;
10059;SDS011;5069;49.306;8.636;2022-11-11T11:36:23;16.00;;;9.33;;
10059;SDS011;5069;49.306;8.636;2022-11-11T11:39:43;17.17;;;9.90;;
10059;SDS011;5069;49.306;8.636;2022-11-11T11:43:09;16.07;;;10.20;;
10059;SDS011;5069;49.306;8.636;2022-11-11T11:46:43;16.27;;;10.13;;
10059;SDS011;5069;49.306;8.636;2022-11-11T11:50:16;16.63;;;10.40;;
10059;SDS011;5069;49.306;8.636;2022-11-11T11:53:52;18.43;;;10.60;;
10059;SDS011;5069;49.306;8.636;2022-11-11T12:01:17;14.13;;;10.27;;
10059;SDS011;5069;49.306;8.636;2022-11-11T12:12:06;16.97;;;10.40;;
10059;SDS011;5069;49.306;8.636;2022-11-11T12:23:15;13.90;;;10.30;;
10059;SDS011;5069;49.306;8.636;2022-11-11T12:30:48;14.40;;;10.90;;
10059;SDS011;5069;49.306;8.636;2022-11-11T12:34:39;17.07;;;11.40;;
10059;SDS011;5069;49.306;8.636;2022-11-11T12:38:26;14.17;;;11.40;;
10059;SDS011;5069;49.306;8.636;2022-11-11T12:42:17;16.20;;;12.50;;
10059;SDS011;5069;49.306;8.636;2022-11-11T13:00:09;17.80;;;12.37;;
10059;SDS011;5069;49.306;8.636;2022-11-11T13:07:25;16.50;;;12.17;;
10059;SDS011;5069;49.306;8.636;2022-11-11T13:11:10;16.70;;;11.73;;
10059;SDS011;5069;49.306;8.636;2022-11-11T13:14:50;16.03;;;11.87;;
10059;SDS011;5069;49.306;8.636;2022-11-11T13:18:19;15.40;;;10.57;;
10059;SDS011;5069;49.306;8.636;2022-11-11T13:21:49;15.10;;;11.10;;
10059;SDS011;5069;49.306;8.636;2022-11-11T13:25:13;15.63;;;10.77;;
10059;SDS011;5069;49.306;8.636;2022-11-11T13:28:47;14.77;;;10.90;;
10059;SDS011;5069;49.306;8.636;2022-11-11T13:32:10;15.53;;;11.03;;
10059;SDS011;5069;49.306;8.636;2022-11-11T13:35:44;16.27;;;10.43;;
10059;SDS011;5069;49.306;8.636;2022-11-11T13:39:10;12.63;;;10.60;;
10059;SDS011;5069;49.306;8.636;2022-11-11T13:42:57;12.67;;;10.97;;
10059;SDS011;5069;49.306;8.636;2022-11-11T13:50:13;16.30;;;12.07;;
10059;SDS011;5069;49.306;8.636;2022-11-11T13:53:45;16.80;;;12.67;;
10059;SDS011;5069;49.306;8.636;2022-11-11T13:57:07;17.93;;;12.70;;
10059;SDS011;5069;49.306;8.636;2022-11-11T14:00:41;17.00;;;13.57;;
10059;SDS011;5069;49.306;8.636;2022-11-11T14:04:03;16.90;;;13.40;;
10059;SDS011;5069;49.306;8.636;2022-11-11T14:11:06;21.10;;;14.80;;
10059;SDS011;5069;49.306;8.636;2022-11-11T14:14:51;20.53;;;14.77;;
10059;SDS011;5069;49.306;8.636;2022-11-11T14:25:23;20.47;;;15.67;;
10059;SDS011;5069;49.306;8.636;2022-11-11T14:28:58;19.70;;;15.23;;
10059;SDS011;5069;49.306;8.636;2022-11-11T14:36:00;25.87;;;17.40;;
10059;SDS011;5069;49.306;8.636;2022-11-11T14:53:51;24.37;;;18.60;;
10059;SDS011;5069;49.306;8.636;2022-11-11T14:57:17;24.87;;;19.20;;
10059;SDS011;5069;49.306;8.636;2022-11-11T15:00:45;27.10;;;20.47;;
10059;SDS011;5069;49.306;8.636;2022-11-11T15:04:18;26.53;;;19.87;;
10059;SDS011;5069;49.306;8.636;2022-11-11T15:07:44;28.57;;;20.60;;
10059;SDS011;5069;49.306;8.636;2022-11-11T15:11:20;28.27;;;20.37;;
10059;SDS011;5069;49.306;8.636;2022-11-11T15:25:39;27.63;;;21.00;;
10059;SDS011;5069;49.306;8.636;2022-11-11T15:32:59;30.90;;;22.53;;
10059;SDS011;5069;49.306;8.636;2022-11-11T15:40:06;30.83;;;21.27;;
10059;SDS011;5069;49.306;8.636;2022-11-11T15:43:30;31.63;;;23.33;;
10059;SDS011;5069;49.306;8.636;2022-11-11T15:46:53;31.00;;;22.20;;
10059;SDS011;5069;49.306;8.636;2022-11-11T15:50:26;31.87;;;23.30;;
10059;SDS011;5069;49.306;8.636;2022-11-11T15:53:49;35.70;;;23.83;;
10059;SDS011;5069;49.306;8.636;2022-11-11T15:57:14;34.93;;;24.80;;
10059;SDS011;5069;49.306;8.636;2022-11-11T16:00:41;34.00;;;24.60;;
10059;SDS011;5069;49.306;8.636;2022-11-11T16:04:01;39.00;;;26.90;;
10059;SDS011;5069;49.306;8.636;2022-11-11T16:07:25;43.10;;;24.10;;
10059;SDS011;5069;49.306;8.636;2022-11-11T16:10:53;35.60;;;25.70;;
10059;SDS011;5069;49.306;8.636;2022-11-11T16:14:26;37.27;;;25.27;;
10059;SDS011;5069;49.306;8.636;2022-11-11T16:17:52;38.27;;;27.67;;
10059;SDS011;5069;49.306;8.636;2022-11-11T16:21:18;39.10;;;26.23;;
10059;SDS011;5069;49.306;8.636;2022-11-11T16:24:42;39.57;;;26.07;;
10059;SDS011;5069;49.306;8.636;2022-11-11T16:28:04;38.10;;;24.37;;
10059;SDS011;5069;49.306;8.636;2022-11-11T16:34:44;33.00;;;24.60;;
10059;SDS011;5069;49.306;8.636;2022-11-11T16:38:07;44.87;;;24.83;;
10059;SDS011;5069;49.306;8.636;2022-11-11T16:41:30;40.50;;;25.13;;
10059;SDS011;5069;49.306;8.636;2022-11-11T16:45:00;38.37;;;25.53;;
10059;SDS011;5069;49.306;8.636;2022-11-11T16:51:55;41.10;;;23.80;;
10059;SDS011;5069;49.306;8.636;2022-11-11T16:55:29;35.37;;;23.43;;
10059;SDS011;5069;49.306;8.636;2022-11-11T16:58:55;61.80;;;23.07;;
10059;SDS011;5069;49.306;8.636;2022-11-11T17:02:20;35.23;;;22.97;;
10059;SDS011;5069;49.306;8.636;2022-11-11T17:09:28;55.90;;;21.83;;
10059;SDS011;5069;49.306;8.636;2022-11-11T17:12:52;63.33;;;23.27;;
10059;SDS011;5069;49.306;8.636;2022-11-11T17:16:12;105.70;;;21.73;;
10059;SDS011;5069;49.306;8.636;2022-11-11T17:19:32;34.27;;;20.23;;
10059;SDS011;5069;49.306;8.636;2022-11-11T17:22:53;35.20;;;23.00;;
10059;SDS011;5069;49.306;8.636;2022-11-11T17:26:15;34.93;;;21.90;;
10059;SDS011;5069;49.306;8.636;2022-11-11T17:29:36;28.20;;;19.13;;
10059;SDS011;5069;49.306;8.636;2022-11-11T17:32:58;32.63;;;20.30;;
10059;SDS011;5069;49.306;8.636;2022-11-11T17:36:18;30.70;;;20.13;;
10059;SDS011;5069;49.306;8.636;2022-11-11T17:39:38;31.27;;;20.13;;
10059;SDS011;5069;49.306;8.636;2022-11-11T17:43:01;39.40;;;17.63;;
10059;SDS011;5069;49.306;8.636;2022-11-11T17:46:22;27.10;;;19.23;;
10059;SDS011;5069;49.306;8.636;2022-11-11T17:49:42;25.30;;;16.93;;
10059;SDS011;5069;49.306;8.636;2022-11-11T17:53:16;28.10;;;19.00;;
10059;SDS011;5069;49.306;8.636;2022-11-11T17:56:36;28.43;;;16.80;;
10059;SDS011;5069;49.306;8.636;2022-11-11T17:59:57;36.73;;;17.03;;
10059;SDS011;5069;49.306;8.636;2022-11-11T18:03:17;28.07;;;17.43;;
10059;SDS011;5069;49.306;8.636;2022-11-11T18:06:37;58.03;;;18.20;;
10059;SDS011;5069;49.306;8.636;2022-11-11T18:09:57;34.10;;;17.33;;
10059;SDS011;5069;49.306;8.636;2022-11-11T18:13:18;27.20;;;16.53;;
10059;SDS011;5069;49.306;8.636;2022-11-11T18:16:38;31.40;;;18.97;;
10059;SDS011;5069;49.306;8.636;2022-11-11T18:19:58;24.23;;;17.70;;
10059;SDS011;5069;49.306;8.636;2022-11-11T18:23:18;46.30;;;17.17;;
10059;SDS011;5069;49.306;8.636;2022-11-11T18:26:38;46.10;;;16.83;;
10059;SDS011;5069;49.306;8.636;2022-11-11T18:29:58;56.57;;;17.13;;
10059;SDS011;5069;49.306;8.636;2022-11-11T18:33:18;29.57;;;17.27;;
10059;SDS011;5069;49.306;8.636;2022-11-11T18:36:38;31.17;;;17.17;;
10059;SDS011;5069;49.306;8.636;2022-11-11T18:39:58;20.20;;;15.03;;
10059;SDS011;5069;49.306;8.636;2022-11-11T18:43:18;29.07;;;17.17;;
10059;SDS011;5069;49.306;8.636;2022-11-11T18:46:38;18.37;;;14.67;;
10059;SDS011;5069;49.306;8.636;2022-11-11T18:49:58;29.63;;;17.37;;
10059;SDS011;5069;49.306;8.636;2022-11-11T18:53:17;34.60;;;16.90;;
10059;SDS011;5069;49.306;8.636;2022-11-11T18:56:37;37.13;;;15.23;;
10059;SDS011;5069;49.306;8.636;2022-11-11T19:00:00;23.70;;;15.73;;
10059;SDS011;5069;49.306;8.636;2022-11-11T19:03:21;35.13;;;15.77;;
10059;SDS011;5069;49.306;8.636;2022-11-11T19:06:41;24.37;;;15.37;;
10059;SDS011;5069;49.306;8.636;2022-11-11T19:10:02;51.40;;;15.90;;
10059;SDS011;5069;49.306;8.636;2022-11-11T19:13:22;22.57;;;15.73;;
10059;SDS011;5069;49.306;8.636;2022-11-11T19:16:43;29.90;;;16.40;;
10059;SDS011;5069;49.306;8.636;2022-11-11T19:20:03;25.20;;;15.93;;
10059;SDS011;5069;49.306;8.636;2022-11-11T19:23:25;22.53;;;15.67;;
10059;SDS011;5069;49.306;8.636;2022-11-11T19:26:45;25.57;;;15.30;;
10059;SDS011;5069;49.306;8.636;2022-11-11T19:30:08;20.80;;;15.17;;
10059;SDS011;5069;49.306;8.636;2022-11-11T19:33:30;22.77;;;17.10;;
10059;SDS011;5069;49.306;8.636;2022-11-11T19:36:52;21.13;;;15.63;;
10059;SDS011;5069;49.306;8.636;2022-11-11T19:40:12;38.93;;;15.53;;
10059;SDS011;5069;49.306;8.636;2022-11-11T19:43:33;20.60;;;13.63;;
10059;SDS011;5069;49.306;8.636;2022-11-11T19:46:53;25.87;;;14.10;;
10059;SDS011;5069;49.306;8.636;2022-11-11T19:50:14;19.30;;;13.93;;
10059;SDS011;5069;49.306;8.636;2022-11-11T19:53:34;20.60;;;14.03;;
10059;SDS011;5069;49.306;8.636;2022-11-11T19:56:54;26.20;;;14.87;;
10059;SDS011;5069;49.306;8.636;2022-11-11T20:00:15;23.23;;;15.23;;
10059;SDS011;5069;49.306;8.636;2022-11-11T20:03:35;20.73;;;16.43;;
10059;SDS011;5069;49.306;8.636;2022-11-11T20:06:55;26.70;;;14.63;;
10059;SDS011;5069;49.306;8.636;2022-11-11T20:10:15;31.03;;;14.70;;
10059;SDS011;5069;49.306;8.636;2022-11-11T20:13:35;19.03;;;14.60;;
10059;SDS011;5069;49.306;8.636;2022-11-11T20:17:01;27.20;;;14.97;;
10059;SDS011;5069;49.306;8.636;2022-11-11T20:20:21;18.93;;;14.40;;
10059;SDS011;5069;49.306;8.636;2022-11-11T20:23:41;21.27;;;14.43;;
10059;SDS011;5069;49.306;8.636;2022-11-11T20:27:02;20.83;;;13.90;;
10059;SDS011;5069;49.306;8.636;2022-11-11T20:30:22;19.87;;;15.10;;
10059;SDS011;5069;49.306;8.636;2022-11-11T20:33:42;39.00;;;14.57;;
10059;SDS011;5069;49.306;8.636;2022-11-11T20:37:02;24.47;;;14.83;;
10059;SDS011;5069;49.306;8.636;2022-11-11T20:40:22;16.97;;;12.53;;
10059;SDS011;5069;49.306;8.636;2022-11-11T20:43:42;16.80;;;13.53;;
10059;SDS011;5069;49.306;8.636;2022-11-11T20:47:03;18.10;;;13.90;;
10059;SDS011;5069;49.306;8.636;2022-11-11T20:50:23;22.20;;;15.77;;
10059;SDS011;5069;49.306;8.636;2022-11-11T20:53:43;25.57;;;15.40;;
10059;SDS011;5069;49.306;8.636;2022-11-11T20:57:04;22.07;;;16.70;;
10059;SDS011;5069;49.306;8.636;2022-11-11T21:00:24;22.20;;;15.83;;
10059;SDS011;5069;49.306;8.636;2022-11-11T21:03:44;21.07;;;15.33;;
10059;SDS011;5069;49.306;8.636;2022-11-11T21:07:04;27.07;;;15.60;;
10059;SDS011;5069;49.306;8.636;2022-11-11T21:10:24;25.10;;;15.90;;
10059;SDS011;5069;49.306;8.636;2022-11-11T21:13:44;19.67;;;15.10;;
10059;SDS011;5069;49.306;8.636;2022-11-11T21:17:06;34.03;;;22.70;;
10059;SDS011;5069;49.306;8.636;2022-11-11T21:20:26;27.37;;;18.60;;
10059;SDS011;5069;49.306;8.636;2022-11-11T21:23:46;25.27;;;17.43;;
10059;SDS011;5069;49.306;8.636;2022-11-11T21:27:06;18.90;;;15.03;;
10059;SDS011;5069;49.306;8.636;2022-11-11T21:30:27;31.17;;;14.60;;
10059;SDS011;5069;49.306;8.636;2022-11-11T21:33:51;18.60;;;14.67;;
10059;SDS011;5069;49.306;8.636;2022-11-11T21:37:12;19.77;;;14.30;;
10059;SDS011;5069;49.306;8.636;2022-11-11T21:40:32;23.47;;;16.43;;
10059;SDS011;5069;49.306;8.636;2022-11-11T21:43:52;21.87;;;14.43;;
10059;SDS011;5069;49.306;8.636;2022-11-11T21:47:13;25.67;;;15.23;;
10059;SDS011;5069;49.306;8.636;2022-11-11T21:50:33;19.37;;;14.40;;
10059;SDS011;5069;49.306;8.636;2022-11-11T21:54:08;18.67;;;14.70;;
10059;SDS011;5069;49.306;8.636;2022-11-11T21:57:29;28.20;;;15.40;;
10059;SDS011;5069;49.306;8.636;2022-11-11T22:00:49;19.90;;;15.13;;
10059;SDS011;5069;49.306;8.636;2022-11-11T22:04:10;20.13;;;15.37;;
10059;SDS011;5069;49.306;8.636;2022-11-11T22:07:31;17.13;;;13.70;;
10059;SDS011;5069;49.306;8.636;2022-11-11T22:10:51;16.33;;;12.87;;
10059;SDS011;5069;49.306;8.636;2022-11-11T22:14:11;18.60;;;13.80;;
10059;SDS011;5069;49.306;8.636;2022-11-11T22:17:31;18.23;;;12.70;;
10059;SDS011;5069;49.306;8.636;2022-11-11T22:20:51;17.33;;;13.47;;
10059;SDS011;5069;49.306;8.636;2022-11-11T22:24:11;19.33;;;14.20;;
10059;SDS011;5069;49.306;8.636;2022-11-11T22:27:31;19.27;;;13.53;;
10059;SDS011;5069;49.306;8.636;2022-11-11T22:30:51;16.90;;;13.13;;
10059;SDS011;5069;49.306;8.636;2022-11-11T22:34:12;15.87;;;12.77;;